This is the latest recevied weather packets stored in our database for station/object VK6DUG. If no packets are shown the sender has not sent any weather packets the latest 10 day(s).
| Time | Temp. | Humidity | Pressure | Rain* | Wind** | Luminosity | Snow |
|---|---|---|---|---|---|---|---|
| 1778151634 | 15.56° C | 63% | 1031.1 hPa | 0 mm | - | 0 W/m² | - |
| 1778151031 | 16.11° C | 61% | 1031.1 hPa | 0 mm | - | 0 W/m² | - |
| 1778150425 | 16.11° C | 60% | 1031 hPa | 0 mm | - | 0 W/m² | - |
| 1778149821 | 16.67° C | 58% | 1031 hPa | 0 mm | - | 0 W/m² | - |
| 1778149235 | 17.22° C | 56% | 1030.9 hPa | 0 mm | - | 0 W/m² | - |
| 1778148630 | 18.33° C | 53% | 1030.9 hPa | 0 mm | - | 0 W/m² | - |
| 1778148025 | 18.89° C | 51% | 1030.7 hPa | 0 mm | - | 0 W/m² | - |
| 1778147421 | 18.89° C | 51% | 1030.6 hPa | 0 mm | - | 0 W/m² | - |
| 1778146817 | 19.44° C | 49% | 1030.5 hPa | 0 mm | - | 3 W/m² | - |
| 1778146233 | 20° C | 48% | 1030.5 hPa | 0 mm | - | 7 W/m² | - |
| 1778145629 | 20.56° C | 47% | 1030.5 hPa | 0 mm | - | 15 W/m² | - |
| 1778145024 | 21.11° C | 46% | 1030.4 hPa | 0 mm | - | 21 W/m² | - |
| 1778144421 | 21.11° C | 45% | 1030.6 hPa | 0 mm | - | 26 W/m² | - |
| 1778143817 | 21.67° C | 44% | 1030.6 hPa | 0 mm | - | 36 W/m² | - |
| 1778143234 | 21.67° C | 43% | 1030.7 hPa | 0 mm | - | 48 W/m² | - |
| 1778142630 | 22.22° C | 43% | 1030.6 hPa | 0 mm | - | 65 W/m² | - |
| 1778142028 | 22.22° C | 43% | 1030.5 hPa | 0 mm | - | 97 W/m² | - |
| 1778141426 | 22.78° C | 43% | 1030.6 hPa | 0 mm | - | 129 W/m² | - |
| 1778140823 | 22.78° C | 44% | 1030.6 hPa | 0 mm | - | 160 W/m² | - |
| 1778140220 | 22.78° C | 43% | 1030.5 hPa | 0 mm | - | 185 W/m² | - |
| 1778139618 | 22.78° C | 43% | 1030.5 hPa | 0 mm | - | 212 W/m² | - |
| 1778139035 | 22.78° C | 42% | 1030.6 hPa | 0 mm | - | 243 W/m² | - |
| 1778138432 | 22.78° C | 43% | 1030.7 hPa | 0 mm | - | 278 W/m² | - |
| 1778137830 | 22.78° C | 42% | 1030.7 hPa | 0 mm | - | 313 W/m² | - |
| 1778137228 | 22.78° C | 44% | 1030.8 hPa | 0 mm | - | 337 W/m² | - |
* Rain latest hour (hover to see other rain measurements)
** Current wind speed in m/s (hover to see current wind gust speed)